Lowell, North Carolina
Current Conditions -  °F | °C
As of 10:38 PM on Monday 22 Dec 2014 (Local Time) from KAKH Reporting Station
Light Snow Light Snow  
Wind Chill: 31°   Ceiling: 400
Heat Index: 38°   Visibility: 7mi
Dew Point: 35°   Wind: 10mph
Humidity: 89%   Direction: 60°ENE
Pressure: 30.02"   Gusts: NA
Location:  35.27°N, 81.1°W
Report Text: KAKH 230338Z AUTO 06009KT 7SM -SN BKN004 OVC011 03/02 A3002 RMK AO2 RAE05SNB05 P0003 T00330017
Loading
Personal Weather Stations






























Interactive Weather Map New forecast layout! Learn more

10-Day Weather Forecast

Advertisements
Track Severe Weather on mobile